Oriana — ZCDU9 — position and weather

sailwx.info

Track history (hours):
 
Tides and Currents Weather Stations Pressure Air Temp Water Temp Dewpoint Dewpoint Depression Visibility Wind Speed Wind Dir Waves Ship Positions

Oriana (Bermuda)

Last reported at 2018-Dec-10 13:53 UTC. Time now 2018-Dec-13 13:58 UTC.
Position N 48°43' W 007°47'.

Length 261 m; beam 32.2 m; draft 8.2 m.

Type: Ship. MMSI: 310529000.

Date/timePositionNaut miles runAvg speedWind from/ knotsBaromVisibWave heightAir tempDewpointWater temp
2018-Dec-10 13:53N 48°43' W 007°47'1517.9
2018-Dec-10 13:01N 48°48' W 007°25'018.2
2018-Dec-10 13:00N 48°48' W 007°25'1118.3
2018-Dec-10 12:24N 48°52' W 007°09'2618.5
2018-Dec-10 11:00N 49°06' W 006°36'1417.9
2018-Dec-10 10:12N 49°07' W 006°14'17117.4
2018-Dec-10 00:23N 50°10' W 002°09'717.7
2018-Dec-10 00:00N 50°13' W 001°59'917.0
2018-Dec-09 23:30N 50°17' W 001°47'816.4
2018-Dec-09 23:00N 50°20' W 001°36'1015.6
2018-Dec-09 22:24N 50°24' W 001°22'614.9
2018-Dec-09 22:00N 50°27' W 001°14'714.3
2018-Dec-09 21:30N 50°30' W 001°04'714.4
2018-Dec-09 21:00N 50°37' W 000°59'611.9
2018-Dec-09 20:30N 50°43' W 000°59'714.6
2018-Dec-09 20:00N 50°46' W 001°10'611.5
2018-Dec-09 19:30N 50°48' W 001°18'4 9.0
2018-Dec-09 19:00N 50°52' W 001°22'2 1.4
2018-Dec-09 17:40N 50°53' W 001°24'0 0.0
2018-Dec-09 16:02N 50°53' W 001°24'0 0.0
2018-Dec-09 15:56N 50°53' W 001°24'0 0.0
2018-Dec-09 15:23N 50°53' W 001°24'0 0.0
2018-Dec-09 14:59N 50°53' W 001°24'0 0.0
2018-Dec-09 14:29N 50°53' W 001°24'0 0.0
2018-Dec-09 13:59N 50°53' W 001°24'0 0.0
2018-Dec-09 13:11N 50°53' W 001°24'0 0.0
2018-Dec-09 11:47N 50°53' W 001°24'0 0.0
2018-Dec-09 11:17N 50°53' W 001°24'0 0.0
2018-Dec-09 10:56N 50°53' W 001°24'0 0.0
2018-Dec-09 10:26N 50°53' W 001°24'0 0.0
2018-Dec-09 09:56N 50°53' W 001°24'0 0.0
2018-Dec-09 09:26N 50°53' W 001°24'0 0.0
2018-Dec-09 08:50N 50°53' W 001°24'0 0.0
2018-Dec-09 08:26N 50°53' W 001°24'0 0.0
2018-Dec-09 07:56N 50°53' W 001°24'0 0.0
2018-Dec-09 07:22N 50°53' W 001°24'0 0.0
2018-Dec-09 06:58N 50°53' W 001°24'0 0.0
2018-Dec-09 06:28N 50°53' W 001°24'0 0.2
2018-Dec-09 06:00N 50°53' W 001°24'3 5.8
2018-Dec-09 05:30N 50°51' W 001°21'4 8.0
2018-Dec-09 05:00N 50°47' W 001°19'612.7
2018-Dec-09 04:30N 50°46' W 001°09'714.5
2018-Dec-09 04:00N 50°43' W 000°59'510.7
2018-Dec-09 03:30N 50°37' W 000°59'613.0
2018-Dec-09 03:01N 50°31' W 001°03'713.7
2018-Dec-09 02:30N 50°28' W 001°12'3014.3
2018-Dec-09 00:27N 50°17' W 001°55'916.2
2018-Dec-08 23:52N 50°16' W 002°09'617.0
2018-Dec-08 23:30N 50°15' W 002°19'917.4
2018-Dec-08 23:00N 50°14' W 002°32'917.3
2018-Dec-08 22:30N 50°13' W 002°46'917.7
2018-Dec-08 22:00N 50°12' W 002°60'917.3
2018-Dec-08 21:30N 50°07' W 003°11'918.0
2018-Dec-08 21:00N 50°03' W 003°23'1019.3
2018-Dec-08 20:30N 49°58' W 003°36'1019.3
2018-Dec-08 19:59N 49°54' W 003°50'16716.7
2018-Dec-08 10:00N 48°42' W 007°42'12420.7 240 / 381014.7 2.2 13.112.412.0
2018-Dec-08 04:00N 47°48' W 010°30'10517.5 270 / 301021.210.8 13.5 9.613.0
2018-Dec-07 22:00N 46°42' W 012°30'12721.2 260 / 301026.010.8 13.2 8.413.0
2018-Dec-07 16:00N 45°18' W 014°48'8817.5 280 / 331027.810.8 14.0 6.814.0
2018-Dec-07 11:00N 44°18' W 016°18'13121.9 290 / 301029.827.0 15.5 7.515.0
2018-Dec-07 05:00N 42°48' W 018°30'11218.6 310 / 251024.910.8 15.011.715.0
2018-Dec-06 23:00N 41°30' W 020°18'12520.8 240 / 241028.427.0 16.514.815.0
2018-Dec-06 17:00N 40°00' W 022°12'6418.8 200 / 151027.810.8 17.016.218.0
2018-Dec-06 13:35N 39°17' W 023°14'1020.1
2018-Dec-06 13:05N 39°10' W 023°22'320.1
2018-Dec-06 12:57N 39°08' W 023°25'1120.3
2018-Dec-06 12:25N 38°60' W 023°34'920.4
2018-Dec-06 11:59N 38°53' W 023°42'1020.7
2018-Dec-06 11:30N 38°46' W 023°51'1020.6
2018-Dec-06 11:00N 38°38' W 023°59'1020.4
2018-Dec-06 10:30N 38°31' W 024°08'1020.6
2018-Dec-06 10:00N 38°23' W 024°17'1020.7
2018-Dec-06 09:30N 38°16' W 024°26'1020.7
2018-Dec-06 09:00N 38°08' W 024°35'1020.6
2018-Dec-06 08:30N 38°00' W 024°43'1020.6
2018-Dec-06 08:00N 37°53' W 024°53'1720.3
2018-Dec-06 07:09N 37°41' W 025°09'319.1
2018-Dec-06 06:59N 37°40' W 025°12'1019.8
2018-Dec-06 06:31N 37°40' W 025°24'1019.4
2018-Dec-06 06:01N 37°43' W 025°36'3 6.1
2018-Dec-06 05:30N 37°44' W 025°40'0 0.2
2018-Dec-06 05:01N 37°44' W 025°40'1 1.9
2018-Dec-06 04:30N 37°44' W 025°39'713.5
2018-Dec-06 04:00N 37°41' W 025°31'816.6
2018-Dec-06 03:30N 37°40' W 025°20'5916.7
2018-Dec-06 00:00N 38°12' W 024°18'4011.5 170 / 101027.210.8 18.613.518.0
2018-Dec-05 20:32N 37°49' W 024°59'018.0
2018-Dec-05 20:30N 37°48' W 024°59'1019.2
2018-Dec-05 20:00N 37°42' W 025°09'918.0
2018-Dec-05 19:31N 37°40' W 025°20'917.4
2018-Dec-05 19:00N 37°40' W 025°31'714.5
2018-Dec-05 18:30N 37°44' W 025°39'1 1.4
2018-Dec-05 18:00N 37°44' W 025°40'0 0.0
2018-Dec-05 17:30N 37°44' W 025°40'0 0.0
2018-Dec-05 17:00N 37°44' W 025°40'0 0.0
2018-Dec-05 16:30N 37°44' W 025°40'0 0.0
2018-Dec-05 16:00N 37°44' W 025°40'0 0.0
2018-Dec-05 15:30N 37°44' W 025°40'0 0.0
2018-Dec-05 15:00N 37°44' W 025°40'0 0.0
2018-Dec-05 14:30N 37°44' W 025°40'0 0.0
2018-Dec-05 14:00N 37°44' W 025°40'0 0.0
2018-Dec-05 13:30N 37°44' W 025°40'0 0.0
2018-Dec-05 13:00N 37°44' W 025°40'0 0.0
2018-Dec-05 12:30N 37°44' W 025°40'0 0.0
2018-Dec-05 12:00N 37°44' W 025°40'0 0.0
2018-Dec-05 11:30N 37°44' W 025°40'0 0.0
2018-Dec-05 11:00N 37°44' W 025°40'0 0.0
2018-Dec-05 10:30N 37°44' W 025°40'1 1.0
2018-Dec-05 10:01N 37°44' W 025°39'4 8.5
2018-Dec-05 09:31N 37°41' W 025°43'917.9
2018-Dec-05 09:00N 37°40' W 025°54'1019.1
2018-Dec-05 08:30N 37°40' W 026°06'1019.6
2018-Dec-05 08:00N 37°40' W 026°18'4376.6
2018-Dec-05 08:00N 37°36' W 026°18'1122.0 100 / 21021.510.8 16.5 9.917.0
2018-Dec-05 07:30N 37°39' W 026°31'1019.8
2018-Dec-05 07:00N 37°39' W 026°43'1019.7
2018-Dec-05 06:30N 37°41' W 026°56'1020.1
2018-Dec-05 06:00N 37°43' W 027°08'1019.7
2018-Dec-05 05:30N 37°46' W 027°20'1019.5
2018-Dec-05 05:00N 37°49' W 027°32'5 9.5
2018-Dec-05 04:30N 37°48' W 027°37'510.9
2018-Dec-05 04:00N 37°43' W 027°35'919.0
2018-Dec-05 03:30N 37°34' W 027°41'1019.6
2018-Dec-05 03:00N 37°26' W 027°47'1019.4
2018-Dec-05 02:30N 37°17' W 027°53'1119.5
2018-Dec-05 01:57N 37°08' W 027°59'919.2
2018-Dec-05 01:30N 37°00' W 028°05'23518.8
2018-Dec-04 13:00N 34°30' W 031°48'17517.5 350 / 251016.727.0 19.0 9.921.0
2018-Dec-04 03:00N 33°00' W 034°48'7023.5 320 / 451014.410.8 18.510.121.0
2018-Dec-04 00:00N 32°24' W 036°00'11419.0 220 / 361015.910.8 17.912.121.0
2018-Dec-03 18:00N 31°24' W 037°54'9819.7 330 / 401015.010.8 20.512.623.0
2018-Dec-03 13:00N 30°30' W 039°30'20318.5 330 / 381017.910.8
2018-Dec-03 02:00N 28°42' W 042°48'2713.5 320 / 401017.110.8 20.516.024.0
2018-Dec-03 00:00N 28°36' W 043°18'21321.3 330 / 551018.110.8 21.015.924.0
2018-Dec-02 14:00N 26°36' W 046°36'14320.5 310 / 201021.427.0 25.016.625.0
2018-Dec-02 07:00N 25°24' W 048°54'11018.4 020 / 141020.010.8 24.017.625.0
2018-Dec-02 01:00N 24°24' W 050°36'12320.6 040 / 201020.310.8 24.519.126.0
2018-Dec-01 19:00N 23°18' W 052°30'8316.6 040 / 201018.010.8 24.519.926.0
2018-Dec-01 14:00N 22°36' W 053°48'15021.4 030 / 151020.110.8 25.620.926.0
2018-Dec-01 07:00N 21°18' W 056°06'9218.4 030 / 111017.610.8 25.319.427.0
2018-Dec-01 02:00N 20°30' W 057°30'21919.9 050 / 141018.910.8 25.720.727.0
2018-Nov-30 15:00N 18°36' W 060°48'   050 / 251018.110.8 25.720.127.0
Track history (hours):
 
Tides and Currents Weather Stations Pressure Air Temp Water Temp Dewpoint Dewpoint Depression Visibility Wind Speed Wind Dir Waves Ship Positions

Oriana (Bermuda)

Last reported at 2018-Dec-10 13:53 UTC. Time now 2018-Dec-13 13:58 UTC.
Position N 48°43' W 007°47'.

Length 261 m; beam 32.2 m; draft 8.2 m.

Type: Ship. MMSI: 310529000.

Date/timePositionNaut miles runAvg speedWind from/ knotsBaromVisibWave heightAir tempDewpointWater temp
2018-Dec-10 13:53N 48°43' W 007°47'1517.9
2018-Dec-10 13:01N 48°48' W 007°25'018.2
2018-Dec-10 13:00N 48°48' W 007°25'1118.3
2018-Dec-10 12:24N 48°52' W 007°09'2618.5
2018-Dec-10 11:00N 49°06' W 006°36'1417.9
2018-Dec-10 10:12N 49°07' W 006°14'17117.4
2018-Dec-10 00:23N 50°10' W 002°09'717.7
2018-Dec-10 00:00N 50°13' W 001°59'917.0
2018-Dec-09 23:30N 50°17' W 001°47'816.4
2018-Dec-09 23:00N 50°20' W 001°36'1015.6
2018-Dec-09 22:24N 50°24' W 001°22'614.9
2018-Dec-09 22:00N 50°27' W 001°14'714.3
2018-Dec-09 21:30N 50°30' W 001°04'714.4
2018-Dec-09 21:00N 50°37' W 000°59'611.9
2018-Dec-09 20:30N 50°43' W 000°59'714.6
2018-Dec-09 20:00N 50°46' W 001°10'611.5
2018-Dec-09 19:30N 50°48' W 001°18'4 9.0
2018-Dec-09 19:00N 50°52' W 001°22'2 1.4
2018-Dec-09 17:40N 50°53' W 001°24'0 0.0
2018-Dec-09 16:02N 50°53' W 001°24'0 0.0
2018-Dec-09 15:56N 50°53' W 001°24'0 0.0
2018-Dec-09 15:23N 50°53' W 001°24'0 0.0
2018-Dec-09 14:59N 50°53' W 001°24'0 0.0
2018-Dec-09 14:29N 50°53' W 001°24'0 0.0
2018-Dec-09 13:59N 50°53' W 001°24'0 0.0
2018-Dec-09 13:11N 50°53' W 001°24'0 0.0
2018-Dec-09 11:47N 50°53' W 001°24'0 0.0
2018-Dec-09 11:17N 50°53' W 001°24'0 0.0
2018-Dec-09 10:56N 50°53' W 001°24'0 0.0
2018-Dec-09 10:26N 50°53' W 001°24'0 0.0
2018-Dec-09 09:56N 50°53' W 001°24'0 0.0
2018-Dec-09 09:26N 50°53' W 001°24'0 0.0
2018-Dec-09 08:50N 50°53' W 001°24'0 0.0
2018-Dec-09 08:26N 50°53' W 001°24'0 0.0
2018-Dec-09 07:56N 50°53' W 001°24'0 0.0
2018-Dec-09 07:22N 50°53' W 001°24'0 0.0
2018-Dec-09 06:58N 50°53' W 001°24'0 0.0
2018-Dec-09 06:28N 50°53' W 001°24'0 0.2
2018-Dec-09 06:00N 50°53' W 001°24'3 5.8
2018-Dec-09 05:30N 50°51' W 001°21'4 8.0
2018-Dec-09 05:00N 50°47' W 001°19'612.7
2018-Dec-09 04:30N 50°46' W 001°09'714.5
2018-Dec-09 04:00N 50°43' W 000°59'510.7
2018-Dec-09 03:30N 50°37' W 000°59'613.0
2018-Dec-09 03:01N 50°31' W 001°03'713.7
2018-Dec-09 02:30N 50°28' W 001°12'3014.3
2018-Dec-09 00:27N 50°17' W 001°55'916.2
2018-Dec-08 23:52N 50°16' W 002°09'617.0
2018-Dec-08 23:30N 50°15' W 002°19'917.4
2018-Dec-08 23:00N 50°14' W 002°32'917.3
2018-Dec-08 22:30N 50°13' W 002°46'917.7
2018-Dec-08 22:00N 50°12' W 002°60'917.3
2018-Dec-08 21:30N 50°07' W 003°11'918.0
2018-Dec-08 21:00N 50°03' W 003°23'1019.3
2018-Dec-08 20:30N 49°58' W 003°36'1019.3
2018-Dec-08 19:59N 49°54' W 003°50'16716.7
2018-Dec-08 10:00N 48°42' W 007°42'12420.7 240 / 381014.7 2.2 13.112.412.0
2018-Dec-08 04:00N 47°48' W 010°30'10517.5 270 / 301021.210.8 13.5 9.613.0
2018-Dec-07 22:00N 46°42' W 012°30'12721.2 260 / 301026.010.8 13.2 8.413.0
2018-Dec-07 16:00N 45°18' W 014°48'8817.5 280 / 331027.810.8 14.0 6.814.0
2018-Dec-07 11:00N 44°18' W 016°18'13121.9 290 / 301029.827.0 15.5 7.515.0
2018-Dec-07 05:00N 42°48' W 018°30'11218.6 310 / 251024.910.8 15.011.715.0
2018-Dec-06 23:00N 41°30' W 020°18'12520.8 240 / 241028.427.0 16.514.815.0
2018-Dec-06 17:00N 40°00' W 022°12'6418.8 200 / 151027.810.8 17.016.218.0
2018-Dec-06 13:35N 39°17' W 023°14'1020.1
2018-Dec-06 13:05N 39°10' W 023°22'320.1
2018-Dec-06 12:57N 39°08' W 023°25'1120.3
2018-Dec-06 12:25N 38°60' W 023°34'920.4
2018-Dec-06 11:59N 38°53' W 023°42'1020.7
2018-Dec-06 11:30N 38°46' W 023°51'1020.6
2018-Dec-06 11:00N 38°38' W 023°59'1020.4
2018-Dec-06 10:30N 38°31' W 024°08'1020.6
2018-Dec-06 10:00N 38°23' W 024°17'1020.7
2018-Dec-06 09:30N 38°16' W 024°26'1020.7
2018-Dec-06 09:00N 38°08' W 024°35'1020.6
2018-Dec-06 08:30N 38°00' W 024°43'1020.6
2018-Dec-06 08:00N 37°53' W 024°53'1720.3
2018-Dec-06 07:09N 37°41' W 025°09'319.1
2018-Dec-06 06:59N 37°40' W 025°12'1019.8
2018-Dec-06 06:31N 37°40' W 025°24'1019.4
2018-Dec-06 06:01N 37°43' W 025°36'3 6.1
2018-Dec-06 05:30N 37°44' W 025°40'0 0.2
2018-Dec-06 05:01N 37°44' W 025°40'1 1.9
2018-Dec-06 04:30N 37°44' W 025°39'713.5
2018-Dec-06 04:00N 37°41' W 025°31'816.6
2018-Dec-06 03:30N 37°40' W 025°20'5916.7
2018-Dec-06 00:00N 38°12' W 024°18'4011.5 170 / 101027.210.8 18.613.518.0
2018-Dec-05 20:32N 37°49' W 024°59'018.0
2018-Dec-05 20:30N 37°48' W 024°59'1019.2
2018-Dec-05 20:00N 37°42' W 025°09'918.0
2018-Dec-05 19:31N 37°40' W 025°20'917.4
2018-Dec-05 19:00N 37°40' W 025°31'714.5
2018-Dec-05 18:30N 37°44' W 025°39'1 1.4
2018-Dec-05 18:00N 37°44' W 025°40'0 0.0
2018-Dec-05 17:30N 37°44' W 025°40'0 0.0
2018-Dec-05 17:00N 37°44' W 025°40'0 0.0
2018-Dec-05 16:30N 37°44' W 025°40'0 0.0
2018-Dec-05 16:00N 37°44' W 025°40'0 0.0
2018-Dec-05 15:30N 37°44' W 025°40'0 0.0
2018-Dec-05 15:00N 37°44' W 025°40'0 0.0
2018-Dec-05 14:30N 37°44' W 025°40'0 0.0
2018-Dec-05 14:00N 37°44' W 025°40'0 0.0
2018-Dec-05 13:30N 37°44' W 025°40'0 0.0
2018-Dec-05 13:00N 37°44' W 025°40'0 0.0
2018-Dec-05 12:30N 37°44' W 025°40'0 0.0
2018-Dec-05 12:00N 37°44' W 025°40'0 0.0
2018-Dec-05 11:30N 37°44' W 025°40'0 0.0
2018-Dec-05 11:00N 37°44' W 025°40'0 0.0
2018-Dec-05 10:30N 37°44' W 025°40'1 1.0
2018-Dec-05 10:01N 37°44' W 025°39'4 8.5
2018-Dec-05 09:31N 37°41' W 025°43'917.9
2018-Dec-05 09:00N 37°40' W 025°54'1019.1
2018-Dec-05 08:30N 37°40' W 026°06'1019.6
2018-Dec-05 08:00N 37°40' W 026°18'4376.6
2018-Dec-05 08:00N 37°36' W 026°18'1122.0 100 / 21021.510.8 16.5 9.917.0
2018-Dec-05 07:30N 37°39' W 026°31'1019.8
2018-Dec-05 07:00N 37°39' W 026°43'1019.7
2018-Dec-05 06:30N 37°41' W 026°56'1020.1
2018-Dec-05 06:00N 37°43' W 027°08'1019.7
2018-Dec-05 05:30N 37°46' W 027°20'1019.5
2018-Dec-05 05:00N 37°49' W 027°32'5 9.5
2018-Dec-05 04:30N 37°48' W 027°37'510.9
2018-Dec-05 04:00N 37°43' W 027°35'919.0
2018-Dec-05 03:30N 37°34' W 027°41'1019.6
2018-Dec-05 03:00N 37°26' W 027°47'1019.4
2018-Dec-05 02:30N 37°17' W 027°53'1119.5
2018-Dec-05 01:57N 37°08' W 027°59'919.2
2018-Dec-05 01:30N 37°00' W 028°05'23518.8
2018-Dec-04 13:00N 34°30' W 031°48'17517.5 350 / 251016.727.0 19.0 9.921.0
2018-Dec-04 03:00N 33°00' W 034°48'7023.5 320 / 451014.410.8 18.510.121.0
2018-Dec-04 00:00N 32°24' W 036°00'11419.0 220 / 361015.910.8 17.912.121.0
2018-Dec-03 18:00N 31°24' W 037°54'9819.7 330 / 401015.010.8 20.512.623.0
2018-Dec-03 13:00N 30°30' W 039°30'20318.5 330 / 381017.910.8
2018-Dec-03 02:00N 28°42' W 042°48'2713.5 320 / 401017.110.8 20.516.024.0
2018-Dec-03 00:00N 28°36' W 043°18'21321.3 330 / 551018.110.8 21.015.924.0
2018-Dec-02 14:00N 26°36' W 046°36'14320.5 310 / 201021.427.0 25.016.625.0
2018-Dec-02 07:00N 25°24' W 048°54'11018.4 020 / 141020.010.8 24.017.625.0
2018-Dec-02 01:00N 24°24' W 050°36'12320.6 040 / 201020.310.8 24.519.126.0
2018-Dec-01 19:00N 23°18' W 052°30'8316.6 040 / 201018.010.8 24.519.926.0
2018-Dec-01 14:00N 22°36' W 053°48'15021.4 030 / 151020.110.8 25.620.926.0
2018-Dec-01 07:00N 21°18' W 056°06'9218.4 030 / 111017.610.8 25.319.427.0
2018-Dec-01 02:00N 20°30' W 057°30'21919.9 050 / 141018.910.8 25.720.727.0
2018-Nov-30 15:00N 18°36' W 060°48'   050 / 251018.110.8 25.720.127.0

Dump ship's entire track history